createdAt,value
2022-08-02T00:01:01.579Z,8.98
2022-08-02T00:03:29.438Z,8.13
2022-08-02T00:05:58.730Z,8.85
2022-08-02T00:08:26.631Z,10.10
2022-08-02T00:10:56.602Z,9.27
2022-08-02T00:13:24.942Z,9.98
2022-08-02T00:15:52.926Z,10.43
2022-08-02T00:18:20.928Z,10.55
2022-08-02T00:20:49.498Z,9.52
2022-08-02T00:23:17.358Z,9.23
2022-08-02T00:25:55.220Z,8.88
2022-08-02T00:28:27.907Z,9.60
2022-08-02T00:30:59.592Z,11.00
2022-08-02T00:34:26.361Z,43.45
2022-08-02T00:36:15.318Z,12.80
2022-08-02T00:38:43.242Z,7.72
2022-08-02T00:41:19.460Z,8.07
2022-08-02T00:43:47.500Z,7.50
2022-08-02T00:46:15.879Z,6.75
2022-08-02T00:48:46.869Z,6.32
2022-08-02T00:51:15.480Z,6.68
2022-08-02T00:53:43.225Z,7.50
2022-08-02T00:56:11.122Z,6.65
2022-08-02T00:58:39.048Z,6.50
2022-08-02T01:01:06.865Z,7.03
2022-08-02T01:03:37.859Z,7.35
2022-08-02T01:06:14.374Z,6.75
2022-08-02T01:08:43.762Z,7.03
2022-08-02T01:11:12.211Z,7.85
2022-08-02T01:13:40.510Z,8.43
2022-08-02T01:16:13.311Z,7.93
2022-08-02T01:18:42.357Z,8.95
2022-08-02T01:21:19.181Z,8.25
2022-08-02T01:24:02.506Z,9.32
2022-08-02T01:27:01.094Z,9.18
2022-08-02T01:29:34.751Z,9.68
2022-08-02T01:32:15.274Z,9.55
2022-08-02T01:34:47.370Z,10.68
2022-08-02T01:37:43.263Z,10.73
2022-08-02T01:40:12.614Z,13.45
2022-08-02T01:42:45.366Z,16.45
2022-08-02T01:45:13.133Z,20.33
2022-08-02T01:47:40.982Z,26.45
2022-08-02T01:50:09.242Z,45.53
2022-08-02T01:52:38.165Z,49.00
2022-08-02T01:55:18.504Z,44.63
2022-08-02T01:57:51.697Z,44.53
2022-08-02T02:00:20.365Z,41.88
2022-08-02T02:02:49.462Z,37.42
2022-08-02T02:05:19.020Z,39.78
2022-08-02T02:07:47.399Z,39.95
2022-08-02T02:10:17.781Z,40.67
2022-08-02T02:12:48.136Z,40.90
2022-08-02T02:15:15.893Z,35.58
2022-08-02T02:17:50.550Z,37.63
2022-08-02T02:20:34.182Z,36.50
2022-08-02T02:23:03.147Z,31.15
2022-08-02T02:25:36.084Z,29.20
2022-08-02T02:28:14.057Z,26.23
2022-08-02T02:30:43.455Z,17.17
2022-08-02T02:33:11.226Z,16.23
2022-08-02T02:35:41.223Z,17.33
2022-08-02T02:38:11.950Z,19.35
2022-08-02T02:40:40.604Z,15.60
2022-08-02T02:43:09.754Z,12.75
2022-08-02T02:45:38.498Z,12.95
2022-08-02T02:48:06.717Z,12.73
2022-08-02T02:50:37.763Z,13.32
2022-08-02T02:53:07.985Z,14.15
2022-08-02T02:55:37.351Z,19.02
2022-08-02T02:58:05.883Z,17.67
2022-08-02T03:00:53.019Z,17.35
2022-08-02T03:03:22.095Z,16.85
2022-08-02T03:05:51.001Z,17.50
2022-08-02T03:08:19.697Z,19.45
2022-08-02T03:11:58.815Z,18.38
2022-08-02T03:15:38.167Z,17.90
2022-08-02T03:18:10.827Z,19.13
2022-08-02T03:20:39.567Z,18.77
2022-08-02T03:23:09.835Z,18.90
2022-08-02T03:25:38.060Z,16.55
2022-08-02T03:28:05.909Z,16.25
2022-08-02T03:30:34.073Z,15.30
2022-08-02T03:33:11.709Z,13.75
2022-08-02T03:35:40.954Z,13.02
2022-08-02T03:38:08.928Z,12.65
2022-08-02T03:40:37.341Z,12.07
2022-08-02T03:43:05.778Z,12.13
2022-08-02T03:45:33.664Z,11.82
2022-08-02T03:48:01.547Z,12.00
2022-08-02T03:50:33.982Z,12.05
2022-08-02T03:53:02.105Z,11.77
2022-08-02T03:55:32.515Z,9.80
2022-08-02T03:58:00.298Z,10.02
2022-08-02T04:00:28.187Z,10.35
2022-08-02T04:02:56.466Z,10.70
2022-08-02T04:05:25.221Z,11.77
2022-08-02T04:08:34.079Z,10.60
2022-08-02T04:11:00.464Z,10.55
2022-08-02T04:13:37.239Z,10.82
2022-08-02T04:16:10.481Z,10.32
2022-08-02T04:18:46.404Z,10.98
2022-08-02T04:21:15.635Z,10.95
2022-08-02T04:23:46.321Z,12.27
2022-08-02T04:26:14.597Z,12.15
2022-08-02T04:28:43.384Z,12.48
2022-08-02T04:31:11.440Z,10.63
2022-08-02T04:33:40.676Z,11.77
2022-08-02T04:36:08.778Z,10.70
2022-08-02T04:38:37.061Z,10.20
2022-08-02T04:41:05.532Z,9.30
2022-08-02T04:46:56.917Z,8.30
2022-08-02T04:49:25.304Z,8.00
2022-08-02T04:51:53.636Z,9.57
2022-08-02T04:54:31.863Z,9.10
2022-08-02T04:57:53.404Z,8.90
2022-08-02T05:00:21.592Z,8.38
2022-08-02T05:07:24.535Z,7.43
2022-08-02T05:10:14.902Z,7.15
2022-08-02T05:12:49.474Z,8.55
2022-08-02T05:15:24.293Z,8.48
2022-08-02T05:17:52.518Z,8.68
2022-08-02T05:20:23.810Z,8.18
2022-08-02T05:22:53.745Z,9.43
2022-08-02T05:27:53.396Z,7.18
2022-08-02T05:30:26.716Z,7.90
2022-08-02T05:32:54.819Z,7.72
2022-08-02T05:35:23.513Z,7.18
2022-08-02T05:37:51.845Z,6.65
2022-08-02T05:40:25.950Z,6.60
2022-08-02T05:42:55.021Z,6.95
2022-08-02T05:45:23.752Z,7.35
2022-08-02T05:47:52.052Z,7.60
2022-08-02T05:50:20.068Z,6.60
2022-08-02T05:52:52.360Z,6.93
2022-08-02T05:55:32.967Z,7.78
2022-08-02T05:58:09.186Z,6.60
2022-08-02T06:00:37.218Z,7.03
2022-08-02T06:03:25.945Z,6.72
2022-08-02T06:06:00.578Z,6.78
2022-08-02T06:08:38.392Z,7.13
2022-08-02T06:11:06.751Z,5.63
2022-08-02T06:13:34.424Z,6.18
2022-08-02T06:16:02.648Z,5.85
2022-08-02T06:18:30.670Z,6.78
2022-08-02T06:22:33.729Z,6.72
2022-08-02T06:23:58.089Z,6.30
2022-08-02T06:26:27.934Z,6.15
2022-08-02T06:28:56.703Z,6.10
2022-08-02T06:31:24.455Z,6.72
2022-08-02T06:33:52.486Z,5.05
2022-08-02T06:36:56.686Z,6.43
2022-08-02T06:39:36.681Z,6.70
2022-08-02T06:42:08.382Z,9.48
2022-08-02T06:44:47.921Z,6.15
2022-08-02T06:47:18.555Z,5.47
2022-08-02T06:49:52.088Z,5.40
2022-08-02T06:52:28.728Z,6.22
2022-08-02T06:55:01.431Z,5.70
2022-08-02T06:57:29.661Z,5.78
2022-08-02T06:59:58.565Z,5.22
2022-08-02T07:02:26.348Z,6.00
2022-08-02T07:04:54.706Z,5.43
2022-08-02T07:10:14.574Z,6.18
2022-08-02T07:12:42.329Z,5.45
2022-08-02T07:15:10.473Z,6.22
2022-08-02T07:17:38.186Z,6.10
2022-08-02T07:20:06.654Z,36.17
2022-08-02T07:22:35.217Z,6.50
2022-08-02T07:25:03.462Z,6.00
2022-08-02T07:27:31.325Z,6.13
2022-08-02T07:29:59.362Z,6.60
2022-08-02T07:32:30.567Z,6.85
2022-08-02T07:34:58.515Z,6.60
2022-08-02T07:37:52.977Z,7.07
2022-08-02T07:40:20.629Z,5.93
2022-08-02T07:43:06.796Z,5.13
2022-08-02T07:45:35.705Z,5.32
2022-08-02T07:48:04.101Z,5.97
2022-08-02T07:50:31.889Z,6.88
2022-08-02T07:52:59.980Z,6.20
2022-08-02T07:55:39.526Z,6.63
2022-08-02T07:58:11.071Z,6.80
2022-08-02T08:00:44.432Z,6.93
2022-08-02T08:05:40.003Z,5.90
2022-08-02T08:08:10.127Z,6.20
2022-08-02T08:10:43.460Z,6.40
2022-08-02T08:13:11.418Z,5.50
2022-08-02T08:15:39.229Z,5.95
2022-08-02T08:18:07.083Z,6.20
2022-08-02T08:20:34.982Z,6.60
2022-08-02T08:23:02.794Z,6.35
2022-08-02T08:25:30.601Z,6.28
2022-08-02T08:27:58.640Z,5.53
2022-08-02T08:30:26.476Z,5.30
2022-08-02T08:32:54.251Z,5.60
2022-08-02T08:35:22.424Z,5.80
2022-08-02T08:37:50.123Z,6.05
2022-08-02T08:40:19.899Z,5.60
2022-08-02T08:42:48.068Z,6.55
2022-08-02T08:45:18.277Z,5.57
2022-08-02T08:47:48.814Z,6.18
2022-08-02T08:50:25.294Z,5.93
2022-08-02T08:53:04.969Z,5.80
2022-08-02T08:55:35.592Z,5.53
2022-08-02T08:58:04.387Z,5.60
2022-08-02T09:00:33.085Z,5.90
2022-08-02T09:03:03.662Z,5.43
2022-08-02T09:05:32.252Z,5.28
2022-08-02T09:08:00.008Z,5.60
2022-08-02T09:10:40.117Z,6.03
2022-08-02T09:13:38.980Z,5.25
2022-08-02T09:16:11.659Z,5.60
2022-08-02T09:18:45.954Z,5.35
2022-08-02T09:21:16.156Z,5.47
2022-08-02T09:23:50.938Z,5.80
2022-08-02T09:26:19.886Z,5.72
2022-08-02T09:28:50.421Z,5.80
2022-08-02T09:31:20.528Z,5.90
2022-08-02T09:33:55.779Z,5.07
2022-08-02T09:36:23.889Z,6.03
2022-08-02T09:39:02.126Z,6.07
2022-08-02T09:41:31.429Z,5.75
2022-08-02T09:44:05.261Z,6.75
2022-08-02T09:46:39.107Z,5.75
2022-08-02T09:49:14.301Z,5.97
2022-08-02T09:51:54.952Z,6.40
2022-08-02T09:54:28.883Z,6.70
2022-08-02T09:56:58.360Z,5.72
2022-08-02T09:59:27.093Z,5.90
2022-08-02T10:01:58.964Z,5.90
2022-08-02T10:04:31.718Z,6.05
2022-08-02T10:07:04.112Z,6.10
2022-08-02T10:09:32.779Z,5.97
2022-08-02T10:12:01.288Z,6.03
2022-08-02T10:14:29.428Z,5.53
2022-08-02T10:16:57.939Z,6.20
2022-08-02T10:20:00.337Z,5.55
2022-08-02T10:22:15.430Z,6.20
2022-08-02T10:24:47.979Z,6.60
2022-08-02T10:27:20.813Z,6.63
2022-08-02T10:29:53.630Z,6.90
2022-08-02T10:32:35.019Z,6.80
2022-08-02T10:35:19.421Z,6.70
2022-08-02T10:37:55.335Z,6.40
2022-08-02T10:40:28.765Z,6.60
2022-08-02T10:43:00.973Z,7.53
2022-08-02T10:45:29.402Z,6.85
2022-08-02T10:48:18.672Z,6.18
2022-08-02T10:50:46.470Z,7.15
2022-08-02T10:53:26.751Z,7.38
2022-08-02T10:55:55.991Z,6.77
2022-08-02T10:58:26.159Z,7.18
2022-08-02T11:00:54.326Z,6.70
2022-08-02T11:03:40.320Z,6.68
2022-08-02T11:06:25.815Z,7.00
2022-08-02T11:09:33.738Z,7.18
2022-08-02T11:12:12.525Z,7.15
2022-08-02T11:14:45.022Z,6.45
2022-08-02T11:17:18.817Z,7.20
2022-08-02T11:20:20.496Z,7.03
2022-08-02T11:22:48.788Z,6.35
2022-08-02T11:25:22.477Z,7.00
2022-08-02T11:27:59.505Z,7.05
2022-08-02T11:30:27.547Z,6.97
2022-08-02T11:32:59.145Z,7.43
2022-08-02T11:35:39.726Z,7.50
2022-08-02T11:38:18.201Z,7.40
2022-08-02T11:40:46.516Z,7.85
2022-08-02T11:43:21.238Z,7.00
2022-08-02T11:45:53.495Z,7.22
2022-08-02T11:48:39.843Z,7.22
2022-08-02T11:51:12.362Z,7.30
2022-08-02T11:53:53.635Z,7.75
2022-08-02T11:56:32.803Z,7.25
2022-08-02T11:59:04.283Z,7.50
2022-08-02T12:01:35.237Z,7.65
2022-08-02T12:04:05.179Z,7.50
2022-08-02T12:06:33.323Z,7.50
2022-08-02T12:09:06.859Z,7.05
2022-08-02T12:11:48.093Z,7.07
2022-08-02T12:14:15.893Z,7.23
2022-08-02T12:17:02.052Z,7.80
2022-08-02T12:19:29.886Z,7.00
2022-08-02T12:22:16.600Z,7.65
2022-08-02T12:24:50.262Z,7.13
2022-08-02T12:27:38.268Z,6.82
2022-08-02T12:30:27.906Z,7.40
2022-08-02T12:33:13.116Z,7.90
2022-08-02T12:35:41.028Z,7.88
2022-08-02T12:38:12.256Z,7.18
2022-08-02T12:43:08.978Z,7.55
2022-08-02T12:45:53.156Z,7.38
2022-08-02T12:48:37.430Z,7.00
2022-08-02T12:51:55.806Z,7.10
2022-08-02T12:54:26.870Z,6.80
2022-08-02T12:57:19.677Z,6.57
2022-08-02T12:59:53.285Z,6.00
2022-08-02T13:02:21.623Z,6.10
2022-08-02T13:04:50.524Z,6.78
2022-08-02T13:07:19.352Z,6.10
2022-08-02T13:09:48.589Z,6.70
2022-08-02T13:12:17.227Z,6.65
2022-08-02T13:14:45.595Z,7.20
2022-08-02T13:17:13.232Z,6.70
2022-08-02T13:19:42.410Z,6.63
2022-08-02T13:22:10.699Z,6.30
2022-08-02T13:24:54.986Z,6.18
2022-08-02T13:27:26.366Z,6.32
2022-08-02T13:29:54.817Z,6.90
2022-08-02T13:32:22.854Z,6.80
2022-08-02T13:34:50.684Z,6.85
2022-08-02T13:37:18.332Z,6.30
2022-08-02T13:40:05.690Z,6.85
2022-08-02T13:42:33.967Z,6.07
2022-08-02T13:45:12.109Z,6.40
2022-08-02T13:47:57.500Z,6.40
2022-08-02T13:50:30.437Z,6.75
2022-08-02T13:52:58.120Z,6.47
2022-08-02T13:55:26.322Z,6.70
2022-08-02T13:57:54.452Z,6.30
2022-08-02T14:00:35.705Z,6.22
2022-08-02T14:03:07.495Z,5.90
2022-08-02T14:05:48.063Z,6.20
2022-08-02T14:08:20.091Z,6.50
2022-08-02T14:10:48.220Z,5.68
2022-08-02T14:13:16.393Z,6.03
2022-08-02T14:15:44.276Z,6.15
2022-08-02T14:18:12.388Z,6.00
2022-08-02T14:20:39.996Z,5.88
2022-08-02T14:23:07.838Z,5.80
2022-08-02T14:25:35.644Z,5.25
2022-08-02T14:28:04.520Z,5.18
2022-08-02T14:30:32.191Z,5.30
2022-08-02T14:32:59.909Z,4.90
2022-08-02T14:35:27.601Z,4.88
2022-08-02T14:37:55.284Z,5.72
2022-08-02T14:40:28.062Z,5.75
2022-08-02T14:43:02.532Z,5.70
2022-08-02T14:48:11.193Z,5.10
2022-08-02T14:50:39.013Z,5.13
2022-08-02T14:53:06.667Z,5.18
2022-08-02T14:55:41.757Z,4.93
2022-08-02T14:58:10.647Z,5.28
2022-08-02T15:00:40.924Z,4.93
2022-08-02T15:03:10.909Z,5.40
2022-08-02T15:05:39.520Z,5.15
2022-08-02T15:08:07.396Z,5.00
2022-08-02T15:10:35.313Z,5.05
2022-08-02T15:13:02.954Z,4.80
2022-08-02T15:15:30.753Z,4.07
2022-08-02T15:17:58.457Z,4.65
2022-08-02T15:20:28.037Z,4.10
2022-08-02T15:22:55.736Z,4.55
2022-08-02T15:25:23.640Z,4.70
2022-08-02T15:27:51.318Z,4.78
2022-08-02T15:30:19.602Z,4.72
2022-08-02T15:32:52.561Z,5.10
2022-08-02T15:35:20.458Z,5.20
2022-08-02T15:37:48.057Z,5.05
2022-08-02T15:40:15.738Z,5.38
2022-08-02T15:42:44.484Z,5.03
2022-08-02T15:45:14.544Z,5.32
2022-08-02T15:47:48.027Z,5.35
2022-08-02T15:50:18.810Z,5.30
2022-08-02T15:52:46.617Z,5.35
2022-08-02T15:55:14.460Z,5.18
2022-08-02T15:57:42.123Z,5.65
2022-08-02T16:00:18.084Z,5.20
2022-08-02T16:02:47.627Z,5.10
2022-08-02T16:05:18.327Z,5.13
2022-08-02T16:07:46.644Z,5.30
2022-08-02T16:10:15.320Z,5.32
2022-08-02T16:12:42.996Z,5.93
2022-08-02T16:15:10.909Z,5.43
2022-08-02T16:17:48.779Z,6.20
2022-08-02T16:20:22.983Z,5.95
2022-08-02T16:22:50.632Z,6.07
2022-08-02T16:25:18.272Z,5.95
2022-08-02T16:28:06.330Z,6.05
2022-08-02T16:30:34.090Z,5.80
2022-08-02T16:33:02.034Z,6.70
2022-08-02T16:35:29.905Z,5.75
2022-08-02T16:37:57.665Z,6.22
2022-08-02T16:40:25.491Z,6.57
2022-08-02T16:42:53.086Z,6.10
2022-08-02T16:45:21.399Z,7.22
2022-08-02T16:47:56.170Z,6.72
2022-08-02T16:50:28.670Z,6.75
2022-08-02T16:52:57.835Z,6.65
2022-08-02T16:55:30.506Z,7.18
2022-08-02T16:57:59.372Z,6.82
2022-08-02T17:00:27.448Z,7.70
2022-08-02T17:02:59.570Z,6.88
2022-08-02T17:05:37.841Z,7.20
2022-08-02T17:08:19.165Z,6.95
2022-08-02T17:10:46.889Z,7.05
2022-08-02T17:13:14.688Z,7.38
2022-08-02T17:16:08.620Z,7.13
2022-08-02T17:18:30.662Z,8.65
2022-08-02T17:20:58.586Z,8.20
2022-08-02T17:24:03.998Z,8.20
2022-08-02T17:26:14.157Z,8.90
2022-08-02T17:29:06.913Z,8.95
2022-08-02T17:34:18.521Z,8.90
2022-08-02T17:36:54.630Z,8.73
2022-08-02T17:39:23.085Z,8.88
2022-08-02T17:41:50.874Z,8.05
2022-08-02T17:44:37.507Z,8.23
2022-08-02T17:47:08.552Z,8.40
2022-08-02T17:49:55.528Z,8.70
2022-08-02T17:52:51.197Z,8.60
2022-08-02T17:55:14.596Z,9.85
2022-08-02T17:57:57.769Z,9.27
2022-08-02T18:00:36.616Z,8.95
2022-08-02T18:03:06.074Z,9.25
2022-08-02T18:08:24.574Z,8.57
2022-08-02T18:10:53.745Z,8.77
2022-08-02T18:13:22.162Z,9.48
2022-08-02T18:15:50.554Z,9.70
2022-08-02T18:18:19.255Z,9.55
2022-08-02T18:20:58.270Z,8.57
2022-08-02T18:23:26.164Z,8.75
2022-08-02T18:25:55.397Z,9.68
2022-08-02T18:28:26.627Z,10.23
2022-08-02T18:30:54.638Z,10.38
2022-08-02T18:33:55.093Z,11.00
2022-08-02T18:36:10.372Z,10.02
2022-08-02T18:38:52.113Z,9.27
2022-08-02T18:41:21.536Z,9.70
2022-08-02T18:43:50.166Z,10.57
2022-08-02T18:46:20.212Z,10.43
2022-08-02T18:48:48.372Z,10.52
2022-08-02T18:51:18.768Z,10.40
2022-08-02T18:53:51.373Z,10.70
2022-08-02T18:56:24.167Z,9.73
2022-08-02T18:58:54.443Z,10.63
2022-08-02T19:01:31.870Z,10.13
2022-08-02T19:04:04.871Z,10.07
2022-08-02T19:06:33.003Z,10.55
2022-08-02T19:09:11.277Z,10.93
2022-08-02T19:11:47.456Z,10.82
2022-08-02T19:14:32.468Z,12.45
2022-08-02T19:17:15.702Z,10.80
2022-08-02T19:19:44.430Z,13.05
2022-08-02T19:22:17.319Z,12.20
2022-08-02T19:24:47.897Z,11.75
2022-08-02T19:27:15.786Z,12.80
2022-08-02T19:29:48.901Z,12.27
2022-08-02T19:32:42.888Z,12.85
2022-08-02T19:35:19.711Z,12.23
2022-08-02T19:38:11.430Z,13.10
2022-08-02T19:40:42.958Z,12.02
2022-08-02T19:44:26.416Z,98.47
2022-08-02T19:46:32.049Z,14.80
2022-08-02T19:49:20.319Z,12.65
2022-08-02T19:51:55.601Z,12.77
2022-08-02T19:54:53.948Z,13.20
2022-08-02T19:57:13.652Z,12.80
2022-08-02T19:59:41.850Z,12.57
2022-08-02T20:02:10.176Z,11.82
2022-08-02T20:04:39.791Z,16.58
2022-08-02T20:07:08.365Z,13.85
2022-08-02T20:09:46.922Z,11.48
2022-08-02T20:12:15.639Z,12.35
2022-08-02T20:14:50.785Z,12.90
2022-08-02T20:17:20.713Z,12.82
2022-08-02T20:19:49.010Z,12.80
2022-08-02T20:22:17.195Z,13.00
2022-08-02T20:24:46.864Z,12.75
2022-08-02T20:27:21.208Z,11.75
2022-08-02T20:29:51.722Z,13.02
2022-08-02T20:32:22.872Z,14.00
2022-08-02T20:34:50.952Z,12.35
2022-08-02T20:37:59.722Z,13.00
2022-08-02T20:40:16.779Z,14.32
2022-08-02T20:42:47.615Z,12.88
2022-08-02T20:45:19.433Z,13.30
2022-08-02T20:50:37.351Z,14.32
2022-08-02T20:53:05.295Z,13.52
2022-08-02T20:55:35.791Z,12.35
2022-08-02T20:58:04.705Z,13.52
2022-08-02T21:00:33.477Z,14.77
2022-08-02T21:03:02.746Z,13.85
2022-08-02T21:05:55.227Z,14.13
2022-08-02T21:08:21.390Z,13.32
2022-08-02T21:10:51.895Z,13.55
2022-08-02T21:13:23.096Z,13.30
2022-08-02T21:15:56.795Z,16.15
2022-08-02T21:18:35.044Z,15.07
2022-08-02T21:21:17.463Z,16.50
2022-08-02T21:23:48.830Z,14.88
2022-08-02T21:26:28.532Z,15.30
2022-08-02T21:29:01.038Z,16.20
2022-08-02T21:31:35.683Z,16.48
2022-08-02T21:34:21.838Z,15.98
2022-08-02T21:36:50.531Z,15.60
2022-08-02T21:39:18.453Z,17.20
2022-08-02T21:41:47.389Z,15.52
2022-08-02T21:44:16.579Z,16.77
2022-08-02T21:46:49.420Z,16.92
2022-08-02T21:49:18.723Z,17.70
2022-08-02T21:51:49.252Z,17.55
2022-08-02T21:54:20.412Z,18.00
2022-08-02T21:56:52.292Z,16.98
2022-08-02T21:59:26.227Z,18.02
2022-08-02T22:01:56.760Z,16.75
2022-08-02T22:04:26.197Z,16.98
2022-08-02T22:06:55.405Z,16.60
2022-08-02T22:09:42.368Z,17.60
2022-08-02T22:12:16.675Z,19.02
2022-08-02T22:14:54.834Z,18.42
2022-08-02T22:17:49.955Z,18.73
2022-08-02T22:20:18.285Z,16.70
2022-08-02T22:22:50.511Z,17.55
2022-08-02T22:25:26.328Z,15.53
2022-08-02T22:28:35.761Z,16.15
2022-08-02T22:30:52.636Z,17.30
2022-08-02T22:33:46.691Z,19.15
2022-08-02T22:36:28.432Z,18.05
2022-08-02T22:38:56.537Z,17.50
2022-08-02T22:41:24.403Z,18.55
2022-08-02T22:43:52.174Z,19.05
2022-08-02T22:46:20.187Z,18.67
2022-08-02T22:48:54.987Z,20.45
2022-08-02T22:51:24.958Z,18.92
2022-08-02T22:53:57.268Z,18.80
2022-08-02T22:56:25.159Z,18.00
2022-08-02T22:58:38.929Z,9.50
2022-08-02T22:59:00.437Z,8.93
2022-08-02T23:01:40.822Z,19.05
2022-08-02T23:04:08.913Z,18.63
2022-08-02T23:06:36.653Z,20.88
2022-08-02T23:09:04.543Z,20.42
2022-08-02T23:11:32.453Z,21.40
2022-08-02T23:14:00.344Z,17.48
2022-08-02T23:16:46.627Z,21.23
2022-08-02T23:19:32.777Z,22.08
2022-08-02T23:22:01.319Z,23.00
2022-08-02T23:24:33.656Z,23.13
2022-08-02T23:29:29.609Z,22.40
2022-08-02T23:31:57.622Z,24.48
2022-08-02T23:34:26.997Z,23.58
2022-08-02T23:36:54.654Z,23.42
2022-08-02T23:39:23.654Z,22.17
2022-08-02T23:41:55.185Z,21.13
2022-08-02T23:44:26.887Z,22.88
2022-08-02T23:46:55.426Z,22.23
2022-08-02T23:49:23.567Z,22.75
2022-08-02T23:51:51.417Z,22.67
2022-08-02T23:54:19.817Z,20.13
2022-08-02T23:56:47.782Z,19.85
2022-08-02T23:59:15.790Z,21.20
